createdAt,value
2022-11-28T00:01:52.181Z,47.00
2022-11-28T00:04:57.313Z,47.00
2022-11-28T00:08:01.174Z,48.00
2022-11-28T00:11:05.885Z,46.25
2022-11-28T00:14:10.105Z,43.50
2022-11-28T00:17:13.858Z,52.00
2022-11-28T00:20:18.830Z,56.25
2022-11-28T00:23:22.532Z,54.25
2022-11-28T00:26:28.322Z,50.00
2022-11-28T00:29:32.044Z,48.00
2022-11-28T00:32:35.827Z,46.00
2022-11-28T00:35:40.837Z,48.00
2022-11-28T00:38:44.470Z,48.50
2022-11-28T00:41:48.241Z,46.00
2022-11-28T00:44:51.613Z,45.75
2022-11-28T00:47:55.304Z,52.75
2022-11-28T00:51:07.775Z,48.50
2022-11-28T00:54:11.943Z,47.50
2022-11-28T00:57:15.327Z,43.00
2022-11-28T01:00:19.731Z,48.00
2022-11-28T01:03:23.183Z,51.00
2022-11-28T01:06:30.360Z,46.50
2022-11-28T01:09:33.743Z,42.25
2022-11-28T01:12:37.453Z,42.25
2022-11-28T01:15:42.777Z,48.00
2022-11-28T01:18:46.649Z,26.75
2022-11-28T01:21:51.587Z,46.00
2022-11-28T01:24:55.361Z,47.00
2022-11-28T01:27:58.792Z,45.00
2022-11-28T01:31:06.154Z,45.75
2022-11-28T01:34:09.785Z,40.75
2022-11-28T01:37:14.825Z,40.25
2022-11-28T01:40:18.297Z,42.75
2022-11-28T01:43:22.788Z,46.25
2022-11-28T01:46:26.289Z,41.50
2022-11-28T01:49:35.471Z,44.75
2022-11-28T01:52:44.449Z,41.50
2022-11-28T01:55:53.939Z,41.00
2022-11-28T01:59:03.617Z,42.00
2022-11-28T02:02:14.435Z,42.50
2022-11-28T02:05:20.187Z,40.25
2022-11-28T02:08:25.879Z,35.75
2022-11-28T02:11:58.048Z,35.50
2022-11-28T02:15:17.476Z,42.00
2022-11-28T02:18:35.193Z,38.25
2022-11-28T02:22:01.331Z,36.00
2022-11-28T02:25:31.321Z,42.25
2022-11-28T02:29:19.517Z,35.50
2022-11-28T02:32:37.010Z,42.00
2022-11-28T02:35:54.225Z,34.50
2022-11-28T02:39:09.914Z,38.00
2022-11-28T02:42:20.046Z,35.25
2022-11-28T02:45:32.929Z,46.50
2022-11-28T02:48:59.861Z,48.75
2022-11-28T02:52:08.202Z,44.00
2022-11-28T02:55:13.603Z,43.00
2022-11-28T02:58:18.658Z,19.25
2022-11-28T03:01:25.670Z,42.00
2022-11-28T03:04:36.182Z,48.25
2022-11-28T03:08:04.530Z,50.75
2022-11-28T03:11:16.812Z,43.25
2022-11-28T03:14:29.529Z,47.00
2022-11-28T03:17:41.700Z,43.50
2022-11-28T03:20:51.500Z,44.00
2022-11-28T03:24:00.988Z,43.50
2022-11-28T03:27:11.106Z,42.50
2022-11-28T03:30:19.711Z,46.50
2022-11-28T03:33:26.599Z,53.25
2022-11-28T03:36:36.460Z,54.00
2022-11-28T03:39:46.454Z,49.00
2022-11-28T03:42:55.126Z,42.50
2022-11-28T03:46:05.574Z,45.75
2022-11-28T03:49:11.444Z,44.25
2022-11-28T03:52:22.874Z,43.75
2022-11-28T03:55:32.115Z,42.50
2022-11-28T03:58:39.373Z,43.00
2022-11-28T04:01:52.492Z,41.50
2022-11-28T04:05:03.879Z,40.00
2022-11-28T04:08:15.729Z,47.50
2022-11-28T04:11:24.137Z,45.75
2022-11-28T04:14:35.445Z,44.00
2022-11-28T04:17:47.054Z,58.00
2022-11-28T04:20:54.343Z,58.00
2022-11-28T04:24:04.862Z,57.25
2022-11-28T04:27:12.232Z,60.00
2022-11-28T04:30:16.924Z,55.75
2022-11-28T04:33:23.464Z,51.75
2022-11-28T04:36:30.106Z,50.25
2022-11-28T04:39:37.619Z,47.50
2022-11-28T04:42:51.308Z,40.00
2022-11-28T04:46:00.936Z,48.00
2022-11-28T04:49:04.694Z,45.50
2022-11-28T04:52:13.113Z,47.00
2022-11-28T04:55:35.179Z,49.50
2022-11-28T04:58:43.079Z,48.50
2022-11-28T05:01:49.318Z,48.25
2022-11-28T05:04:55.721Z,46.75
2022-11-28T05:08:00.202Z,50.75
2022-11-28T05:11:23.673Z,52.25
2022-11-28T05:14:27.816Z,52.75
2022-11-28T05:17:31.307Z,47.50
2022-11-28T05:20:35.673Z,44.25
2022-11-28T05:23:39.055Z,48.00
2022-11-28T05:26:44.391Z,47.25
2022-11-28T05:29:52.056Z,64.00
2022-11-28T05:32:56.344Z,67.75
2022-11-28T05:36:08.518Z,62.25
2022-11-28T05:39:15.202Z,68.25
2022-11-28T05:42:20.083Z,68.75
2022-11-28T05:45:23.830Z,66.00
2022-11-28T05:48:27.396Z,60.25
2022-11-28T05:51:31.199Z,53.50
2022-11-28T05:54:34.580Z,56.75
2022-11-28T05:57:39.651Z,57.25
2022-11-28T06:00:43.063Z,41.50
2022-11-28T06:03:47.595Z,57.00
2022-11-28T06:06:51.987Z,54.75
2022-11-28T06:09:55.747Z,52.75
2022-11-28T06:13:00.815Z,56.00
2022-11-28T06:16:07.746Z,55.00
2022-11-28T06:19:13.904Z,50.50
2022-11-28T06:22:17.711Z,57.00
2022-11-28T06:25:21.075Z,55.75
2022-11-28T06:28:26.134Z,58.25
2022-11-28T06:31:31.104Z,53.25
2022-11-28T06:34:35.068Z,60.00
2022-11-28T06:37:38.431Z,49.50
2022-11-28T06:40:42.850Z,53.00
2022-11-28T06:43:47.991Z,56.50
2022-11-28T06:46:51.762Z,47.00
2022-11-28T06:49:55.148Z,60.50
2022-11-28T06:52:58.866Z,62.00
2022-11-28T06:56:06.898Z,64.50
2022-11-28T06:59:13.817Z,62.25
2022-11-28T07:02:17.623Z,55.25
2022-11-28T07:05:22.941Z,57.75
2022-11-28T07:08:26.390Z,57.00
2022-11-28T07:11:32.342Z,52.25
2022-11-28T07:14:40.452Z,57.25
2022-11-28T07:17:44.154Z,60.50
2022-11-28T07:20:47.686Z,58.50
2022-11-28T07:23:52.387Z,43.75
2022-11-28T07:26:56.537Z,48.00
2022-11-28T07:30:01.741Z,53.50
2022-11-28T07:33:05.415Z,53.50
2022-11-28T07:36:12.553Z,43.50
2022-11-28T07:39:17.598Z,55.75
2022-11-28T07:42:21.207Z,49.25
2022-11-28T07:45:59.367Z,55.00
2022-11-28T07:49:04.455Z,50.75
2022-11-28T07:52:07.965Z,52.25
2022-11-28T07:55:11.847Z,55.25
2022-11-28T07:58:16.572Z,54.25
2022-11-28T08:01:26.481Z,47.25
2022-11-28T08:04:29.939Z,43.00
2022-11-28T08:07:33.731Z,51.00
2022-11-28T08:10:37.153Z,48.75
2022-11-28T08:13:41.724Z,48.50
2022-11-28T08:16:46.602Z,49.00
2022-11-28T08:19:50.379Z,47.00
2022-11-28T08:22:53.868Z,48.25
2022-11-28T08:25:57.952Z,41.00
2022-11-28T08:29:03.033Z,45.00
2022-11-28T08:32:08.154Z,46.50
2022-11-28T08:35:11.769Z,54.50
2022-11-28T08:38:15.497Z,53.00
2022-11-28T08:41:22.719Z,48.50
2022-11-28T08:44:27.451Z,54.00
2022-11-28T08:47:32.338Z,47.75
2022-11-28T08:50:36.263Z,47.00
2022-11-28T08:53:39.573Z,48.50
2022-11-28T08:56:45.275Z,48.00
2022-11-28T08:59:48.636Z,41.00
2022-11-28T09:02:53.830Z,30.25
2022-11-28T09:06:02.846Z,33.50
2022-11-28T09:09:06.788Z,25.50
2022-11-28T09:12:10.142Z,33.00
2022-11-28T09:15:13.842Z,28.75
2022-11-28T09:18:19.143Z,34.00
2022-11-28T09:21:22.957Z,24.25
2022-11-28T09:24:26.449Z,39.00
2022-11-28T09:27:30.241Z,40.00
2022-11-28T09:30:34.431Z,33.25
2022-11-28T09:33:40.620Z,36.25
2022-11-28T09:36:44.138Z,42.00
2022-11-28T09:40:11.469Z,30.50
2022-11-28T09:43:17.771Z,40.25
2022-11-28T09:46:28.437Z,39.50
2022-11-28T09:49:41.076Z,45.00
2022-11-28T09:52:53.118Z,40.00
2022-11-28T09:56:01.212Z,33.00
2022-11-28T09:59:07.560Z,24.00
2022-11-28T10:02:28.226Z,25.50
2022-11-28T10:05:41.473Z,24.75
2022-11-28T10:09:06.755Z,17.25
2022-11-28T10:12:27.979Z,33.25
2022-11-28T10:15:46.926Z,30.25
2022-11-28T10:18:56.353Z,33.50
2022-11-28T10:22:06.356Z,33.00
2022-11-28T10:25:19.027Z,38.75
2022-11-28T10:28:27.691Z,29.50
2022-11-28T10:31:36.359Z,23.50
2022-11-28T10:34:46.329Z,22.50
2022-11-28T10:37:53.300Z,26.25
2022-11-28T10:41:01.871Z,29.00
2022-11-28T10:44:19.982Z,22.50
2022-11-28T10:47:45.619Z,22.50
2022-11-28T10:51:00.507Z,38.00
2022-11-28T10:54:20.922Z,43.50
2022-11-28T10:57:30.379Z,42.25
2022-11-28T11:00:35.989Z,48.25
2022-11-28T11:03:41.581Z,51.50
2022-11-28T11:07:07.168Z,38.25
2022-11-28T11:10:17.531Z,41.50
2022-11-28T11:13:23.680Z,40.75
2022-11-28T11:16:47.067Z,21.25
2022-11-28T11:19:50.539Z,32.75
2022-11-28T11:22:56.967Z,34.00
2022-11-28T11:26:02.453Z,41.00
2022-11-28T11:29:06.602Z,35.00
2022-11-28T11:32:21.832Z,30.50
2022-11-28T11:35:29.022Z,34.75
2022-11-28T11:38:38.092Z,33.50
2022-11-28T11:41:45.093Z,33.25
2022-11-28T11:44:48.540Z,43.00
2022-11-28T11:47:52.264Z,27.00
2022-11-28T11:50:55.967Z,32.50
2022-11-28T11:54:04.636Z,19.00
2022-11-28T12:00:41.127Z,36.50
2022-11-28T12:03:54.458Z,24.00
2022-11-28T12:07:03.172Z,16.00
2022-11-28T12:10:12.844Z,27.00
2022-11-28T12:13:22.441Z,17.75
2022-11-28T12:16:42.694Z,22.25
2022-11-28T12:19:57.753Z,22.50
2022-11-28T12:26:45.519Z,14.75
2022-11-28T12:30:04.855Z,28.75
2022-11-28T12:33:31.881Z,26.00
2022-11-28T12:36:42.603Z,21.25
2022-11-28T12:40:01.870Z,30.75
2022-11-28T12:43:23.886Z,18.00
2022-11-28T12:46:41.490Z,20.00
2022-11-28T12:49:57.287Z,22.75
2022-11-28T12:53:23.852Z,37.00
2022-11-28T12:56:38.726Z,27.25
2022-11-28T12:59:51.904Z,18.75
2022-11-28T13:03:10.044Z,20.50
2022-11-28T13:06:28.440Z,20.00
2022-11-28T13:09:35.412Z,20.75
2022-11-28T13:12:50.145Z,26.00
2022-11-28T13:16:03.906Z,27.00
2022-11-28T13:19:28.702Z,24.25
2022-11-28T13:22:44.230Z,25.25
2022-11-28T13:25:54.442Z,31.75
2022-11-28T13:29:06.439Z,25.75
2022-11-28T13:32:18.665Z,30.00
2022-11-28T13:35:24.707Z,32.00
2022-11-28T13:38:41.692Z,21.00
2022-11-28T13:42:28.370Z,26.00
2022-11-28T13:45:32.456Z,39.75
2022-11-28T13:52:35.154Z,42.50
2022-11-28T13:55:45.276Z,57.00
2022-11-28T13:58:54.246Z,42.25
2022-11-28T14:02:01.328Z,35.75
2022-11-28T14:05:23.141Z,39.00
2022-11-28T14:08:35.561Z,37.50
2022-11-28T14:11:52.926Z,33.00
2022-11-28T14:15:15.169Z,26.25
2022-11-28T14:22:15.210Z,23.50
2022-11-28T14:25:25.588Z,25.00
2022-11-28T14:28:33.250Z,41.00
2022-11-28T14:31:39.752Z,31.50
2022-11-28T14:34:47.145Z,41.75
2022-11-28T14:37:53.011Z,39.75
2022-11-28T14:41:09.192Z,45.75
2022-11-28T14:44:46.327Z,30.50
2022-11-28T14:48:08.090Z,47.25
2022-11-28T14:51:11.914Z,40.75
2022-11-28T14:54:23.640Z,33.25
2022-11-28T14:57:32.652Z,25.00
2022-11-28T15:00:47.385Z,39.25
2022-11-28T15:04:00.180Z,31.25
2022-11-28T15:07:05.175Z,40.00
2022-11-28T15:10:15.966Z,23.50
2022-11-28T15:13:34.171Z,41.00
2022-11-28T15:16:48.232Z,42.00
2022-11-28T15:19:59.037Z,42.75
2022-11-28T15:23:02.982Z,42.50
2022-11-28T15:26:07.039Z,34.25
2022-11-28T15:29:20.309Z,32.75
2022-11-28T15:32:26.288Z,38.00
2022-11-28T15:35:30.506Z,29.00
2022-11-28T15:38:38.022Z,38.50
2022-11-28T15:41:46.741Z,31.75
2022-11-28T15:44:57.900Z,32.50
2022-11-28T15:48:01.802Z,30.00
2022-11-28T15:51:07.815Z,29.75
2022-11-28T15:54:32.025Z,31.50
2022-11-28T15:57:35.581Z,24.50
2022-11-28T16:00:44.095Z,23.00
2022-11-28T16:03:56.098Z,32.00
2022-11-28T16:07:02.601Z,31.00
2022-11-28T16:10:09.131Z,33.50
2022-11-28T16:13:17.200Z,34.50
2022-11-28T16:16:26.771Z,32.00
2022-11-28T16:19:33.597Z,35.50
2022-11-28T16:22:38.249Z,32.50
2022-11-28T16:25:41.960Z,32.50
2022-11-28T16:28:59.697Z,35.50
2022-11-28T16:32:23.004Z,38.50
2022-11-28T16:35:28.736Z,30.50
2022-11-28T16:38:33.107Z,34.25
2022-11-28T16:41:36.944Z,33.00
2022-11-28T16:44:40.930Z,42.25
2022-11-28T16:47:46.798Z,35.75
2022-11-28T16:51:32.054Z,35.75
2022-11-28T16:54:35.443Z,31.25
2022-11-28T16:57:47.523Z,34.50
2022-11-28T17:01:03.429Z,42.25
2022-11-28T17:04:21.940Z,30.25
2022-11-28T17:07:25.671Z,34.00
2022-11-28T17:10:29.557Z,26.50
2022-11-28T17:13:32.930Z,39.00
2022-11-28T17:16:38.449Z,41.50
2022-11-28T17:19:44.248Z,30.25
2022-11-28T17:22:51.141Z,28.75
2022-11-28T17:25:54.547Z,26.75
2022-11-28T17:28:59.032Z,32.50
2022-11-28T17:32:03.131Z,34.50
2022-11-28T17:35:15.118Z,28.75
2022-11-28T17:38:20.240Z,32.25
2022-11-28T17:41:25.700Z,26.75
2022-11-28T17:44:32.189Z,43.25
2022-11-28T17:47:36.831Z,28.00
2022-11-28T17:50:42.002Z,31.75
2022-11-28T17:53:48.832Z,41.75
2022-11-28T17:56:54.261Z,40.50
2022-11-28T17:59:58.627Z,26.75
2022-11-28T18:03:02.158Z,23.50
2022-11-28T18:06:08.235Z,31.50
2022-11-28T18:09:12.550Z,29.25
2022-11-28T18:12:16.632Z,27.75
2022-11-28T18:15:20.084Z,37.25
2022-11-28T18:18:25.575Z,37.50
2022-11-28T18:21:30.776Z,27.25
2022-11-28T18:24:34.783Z,35.50
2022-11-28T18:27:38.779Z,30.25
2022-11-28T18:30:43.488Z,29.75
2022-11-28T18:33:47.203Z,29.25
2022-11-28T18:36:58.491Z,32.00
2022-11-28T18:40:09.328Z,35.50
2022-11-28T18:43:14.527Z,43.50
2022-11-28T18:46:19.967Z,47.75
2022-11-28T18:49:25.245Z,28.75
2022-11-28T18:52:30.272Z,37.50
2022-11-28T18:55:34.380Z,40.50
2022-11-28T18:58:40.093Z,40.00
2022-11-28T19:01:44.757Z,35.00
2022-11-28T19:04:48.205Z,36.75
2022-11-28T19:07:53.492Z,33.75
2022-11-28T19:10:56.986Z,32.75
2022-11-28T19:14:00.748Z,36.75
2022-11-28T19:17:05.197Z,36.00
2022-11-28T19:20:11.049Z,25.25
2022-11-28T19:23:16.031Z,37.50
2022-11-28T19:26:22.908Z,26.50
2022-11-28T19:29:26.475Z,31.50
2022-11-28T19:32:30.351Z,23.75
2022-11-28T19:35:34.587Z,40.25
2022-11-28T19:38:40.242Z,32.50
2022-11-28T19:41:44.182Z,31.75
2022-11-28T19:44:49.512Z,34.75
2022-11-28T19:47:53.573Z,25.75
2022-11-28T19:50:58.455Z,37.25
2022-11-28T19:54:04.207Z,32.75
2022-11-28T19:57:11.426Z,41.75
2022-11-28T20:00:16.341Z,47.75
2022-11-28T20:03:23.989Z,26.75
2022-11-28T20:06:28.993Z,33.75
2022-11-28T20:09:35.520Z,35.25
2022-11-28T20:12:39.741Z,34.50
2022-11-28T20:15:44.234Z,10.25
2022-11-28T20:18:47.835Z,31.75
2022-11-28T20:21:51.697Z,32.00
2022-11-28T20:24:57.878Z,37.50
2022-11-28T20:28:02.245Z,29.50
2022-11-28T20:31:06.501Z,30.25
2022-11-28T20:34:10.675Z,25.50
2022-11-28T20:37:14.514Z,28.25
2022-11-28T20:40:19.786Z,25.00
2022-11-28T20:43:23.199Z,26.75
2022-11-28T20:46:30.305Z,26.50
2022-11-28T20:49:33.938Z,25.50
2022-11-28T20:52:37.876Z,31.00
2022-11-28T20:55:42.684Z,24.25
2022-11-28T20:58:46.827Z,36.50
2022-11-28T21:01:50.373Z,39.00
2022-11-28T21:04:54.340Z,43.00
2022-11-28T21:07:58.041Z,42.00
2022-11-28T21:11:07.591Z,42.00
2022-11-28T21:14:11.983Z,38.25
2022-11-28T21:17:15.635Z,38.75
2022-11-28T21:20:19.258Z,30.00
2022-11-28T21:23:23.066Z,35.00
2022-11-28T21:26:30.581Z,35.50
2022-11-28T21:29:34.469Z,27.75
2022-11-28T21:32:38.215Z,26.00
2022-11-28T21:35:42.076Z,37.25
2022-11-28T21:38:50.174Z,30.75
2022-11-28T21:41:55.505Z,41.00
2022-11-28T21:44:58.879Z,17.25
2022-11-28T21:48:02.730Z,36.25
2022-11-28T21:51:06.949Z,27.75
2022-11-28T21:54:11.761Z,30.25
2022-11-28T21:57:16.503Z,32.75
2022-11-28T22:00:51.716Z,34.75
2022-11-28T22:03:44.943Z,32.50
2022-11-28T22:06:49.308Z,36.00
2022-11-28T22:09:52.773Z,33.50
2022-11-28T22:12:59.282Z,29.25
2022-11-28T22:16:03.160Z,34.75
2022-11-28T22:19:07.086Z,34.00
2022-11-28T22:22:10.491Z,31.25
2022-11-28T22:25:16.598Z,36.25
2022-11-28T22:28:22.051Z,34.50
2022-11-28T22:31:25.871Z,39.75
2022-11-28T22:34:29.394Z,30.25
2022-11-28T22:37:33.064Z,36.00
2022-11-28T22:40:38.097Z,28.00
2022-11-28T22:43:43.980Z,41.00
2022-11-28T22:46:47.513Z,36.25
2022-11-28T22:49:51.382Z,28.50
2022-11-28T22:52:54.973Z,28.50
2022-11-28T22:56:03.821Z,23.25
2022-11-28T22:59:12.793Z,29.00
2022-11-28T23:02:16.770Z,30.50
2022-11-28T23:05:20.404Z,28.00
2022-11-28T23:08:25.130Z,26.00
2022-11-28T23:11:32.698Z,23.75
2022-11-28T23:14:38.025Z,27.75
2022-11-28T23:17:41.571Z,23.75
2022-11-28T23:20:45.285Z,25.50
2022-11-28T23:23:49.862Z,26.75
2022-11-28T23:26:53.794Z,40.25
2022-11-28T23:29:58.527Z,31.00
2022-11-28T23:33:02.247Z,31.50
2022-11-28T23:36:14.805Z,26.25
2022-11-28T23:39:20.569Z,27.50
2022-11-28T23:42:23.967Z,22.50
2022-11-28T23:45:29.567Z,30.50
2022-11-28T23:48:33.115Z,25.25
2022-11-28T23:51:37.163Z,18.75
2022-11-28T23:54:40.600Z,21.50
2022-11-28T23:57:44.346Z,17.00
